Christine Anderson — WCN2606 — position and weather

sailwx.info

Track history (hours):
 
Tides and Currents Weather Stations Pressure Air Temp Water Temp Dewpoint Dewpoint Depression Visibility Wind Speed Wind Dir Waves Ship Positions

Christine Anderson

Owner: PIERCE, COUNTY OF, TACOMA, WA. More information available from US FCC via Universal Licensing System and Coast Guard Vessel Documentation Center.

Last reported at 2015-Aug-03 16:25 UTC. Time now 2015-Aug-03 17:15 UTC.
Position N 47°11' W 122°41'.

MMSI: 366659730.

Date/timePositionNaut miles runAvg speedWind from/ knotsBaromVisibWave heightAir tempDewpointWater temp
2015-Aug-03 16:25N 47°11' W 122°41'3 4.8
2015-Aug-03 15:48N 47°10' W 122°36'310.5
2015-Aug-03 15:33N 47°11' W 122°40'0 0.1
2015-Aug-03 14:33N 47°11' W 122°40'3 2.5
2015-Aug-03 13:33N 47°10' W 122°36'0 7.6
2015-Aug-03 13:31N 47°11' W 122°36'0 0.3
2015-Aug-03 12:32N 47°10' W 122°36'0 0.0
2015-Aug-03 12:25N 47°10' W 122°36'1 0.1
2015-Aug-03 04:33N 47°10' W 122°37'1 1.0
2015-Aug-03 03:33N 47°10' W 122°36'0 0.0
2015-Aug-03 02:32N 47°10' W 122°36'0 0.0
2015-Aug-03 01:27N 47°10' W 122°36'2 2.1
2015-Aug-03 00:31N 47°11' W 122°39'0 0.2
2015-Aug-02 23:31N 47°11' W 122°39'0 0.2
2015-Aug-02 22:29N 47°11' W 122°39'1 0.8
2015-Aug-02 21:29N 47°11' W 122°40'3 3.0
2015-Aug-02 20:33N 47°10' W 122°36'3 2.9
2015-Aug-02 19:31N 47°11' W 122°41'1 0.9
2015-Aug-02 18:16N 47°11' W 122°39'1 1.5
2015-Aug-02 17:32N 47°11' W 122°41'0 0.2
2015-Aug-02 16:15N 47°11' W 122°40'2 1.9
2015-Aug-02 15:04N 47°11' W 122°37'2 3.7
2015-Aug-02 14:32N 47°11' W 122°40'3 2.6
2015-Aug-02 13:33N 47°10' W 122°36'3 0.3
2015-Aug-02 05:33N 47°11' W 122°40'2 2.2
2015-Aug-02 04:30N 47°11' W 122°37'3 7.0
2015-Aug-02 04:07N 47°11' W 122°41'3 5.0
2015-Aug-02 03:33N 47°11' W 122°36'0 0.4
2015-Aug-02 02:33N 47°11' W 122°37'2 5.3
2015-Aug-02 02:07N 47°11' W 122°41'3 5.1
2015-Aug-02 01:32N 47°10' W 122°36'0 0.3
2015-Aug-02 00:32N 47°11' W 122°37'1 1.0
2015-Aug-01 23:33N 47°11' W 122°38'1 1.4
2015-Aug-01 22:33N 47°11' W 122°40'0 0.3
2015-Aug-01 21:33N 47°11' W 122°41'2 6.9
2015-Aug-01 21:17N 47°11' W 122°38'1 1.0
2015-Aug-01 20:03N 47°10' W 122°36'3 5.2
2015-Aug-01 19:33N 47°11' W 122°40'3 2.6
2015-Aug-01 18:33N 47°10' W 122°36'3 2.4
2015-Aug-01 17:25N 47°11' W 122°40'3 7.1
2015-Aug-01 17:01N 47°10' W 122°36'3 5.5
2015-Aug-01 16:33N 47°11' W 122°40'0 9.9
2015-Aug-01 16:31N 47°11' W 122°41'1 0.6
2015-Aug-01 15:33N 47°11' W 122°40'0 0.0
2015-Aug-01 14:33N 47°11' W 122°40'1 5.2
2015-Aug-01 14:26N 47°11' W 122°41'3 3.5
2015-Aug-01 13:33N 47°10' W 122°36'0 0.5
2015-Aug-01 13:31N 47°10' W 122°36'0 0.0
2015-Aug-01 07:05N 47°10' W 122°36'3 5.3
2015-Aug-01 06:34N 47°11' W 122°40'3 2.8
2015-Aug-01 05:33N 47°10' W 122°36'3 2.9
2015-Aug-01 04:32N 47°11' W 122°40'0 0.1
2015-Aug-01 03:45N 47°11' W 122°41'0 0.4
2015-Aug-01 03:33N 47°11' W 122°40'310.0
2015-Aug-01 03:15N 47°10' W 122°36'3 4.2
2015-Aug-01 02:33N 47°11' W 122°40'0 0.7
2015-Aug-01 02:25N 47°11' W 122°41'3 3.2
2015-Aug-01 01:33N 47°11' W 122°37'1 3.2
2015-Aug-01 01:15N 47°10' W 122°38'1 1.8
2015-Aug-01 00:33N 47°10' W 122°36'1 0.7
2015-Jul-31 23:34N 47°11' W 122°37'1 2.2
2015-Jul-31 23:14N 47°10' W 122°36'2 2.6
2015-Jul-31 22:33N 47°11' W 122°39'1 1.1
2015-Jul-31 21:31N 47°11' W 122°40'3 6.6
2015-Jul-31 21:04N 47°10' W 122°36'0 0.0
2015-Jul-31 20:16N 47°10' W 122°36'3 4.2
2015-Jul-31 19:33N 47°11' W 122°41'3 5.3
2015-Jul-31 18:59N 47°10' W 122°36'3 2.1
2015-Jul-31 17:33N 47°11' W 122°41'0 0.0
2015-Jul-31 16:32N 47°11' W 122°41'1 1.0
2015-Jul-31 15:12N 47°11' W 122°39'2 4.4
2015-Jul-31 14:49N 47°10' W 122°36'310.2
2015-Jul-31 14:33N 47°11' W 122°40'3 2.6
2015-Jul-31 13:33N 47°10' W 122°36'0 0.0
2015-Jul-31 12:30N 47°10' W 122°36'1 0.1
2015-Jul-31 04:31N 47°10' W 122°38'1 1.2
2015-Jul-31 03:33N 47°10' W 122°36'0 0.0
2015-Jul-31 02:26N 47°10' W 122°36'0 0.3
2015-Jul-31 01:28N 47°11' W 122°37'2 1.1
2015-Jul-30 23:33N 47°11' W 122°40'1 0.5
2015-Jul-30 22:34N 47°11' W 122°40'0 0.0
2015-Jul-30 21:29N 47°11' W 122°40'3 2.6
2015-Jul-30 20:20N 47°10' W 122°36'3 3.7
2015-Jul-30 19:30N 47°11' W 122°41'3 2.2
2015-Jul-30 18:08N 47°10' W 122°36'3 4.5
2015-Jul-30 17:27N 47°11' W 122°41'0 0.0
2015-Jul-30 16:33N 47°11' W 122°41'0 0.1
2015-Jul-30 15:19N 47°11' W 122°40'0 0.1
2015-Jul-30 14:33N 47°11' W 122°41'2 2.1
2015-Jul-30 13:33N 47°11' W 122°38'1 0.9
2015-Jul-30 12:26N 47°10' W 122°36'0 0.0
2015-Jul-30 03:20N 47°10' W 122°36'0 0.0
2015-Jul-30 03:17N 47°10' W 122°36'0 0.1
2015-Jul-30 02:33N 47°11' W 122°36'0 0.1
2015-Jul-30 01:19N 47°10' W 122°36'1 1.6
2015-Jul-30 00:31N 47°11' W 122°38'1 1.4
2015-Jul-29 23:33N 47°11' W 122°40'0 0.0
2015-Jul-29 22:33N 47°11' W 122°40'0 0.3
2015-Jul-29 21:29N 47°11' W 122°40'3 5.7
2015-Jul-29 20:58N 47°10' W 122°36'0 0.0
2015-Jul-29 20:33N 47°10' W 122°36'0 0.0
2015-Jul-29 20:19N 47°10' W 122°36'3 2.9
2015-Jul-29 19:19N 47°11' W 122°40'3 3.7
2015-Jul-29 18:31N 47°10' W 122°36'0 0.1
2015-Jul-29 17:33N 47°11' W 122°36'3 2.9
2015-Jul-29 16:33N 47°11' W 122°41'0 0.0
2015-Jul-29 15:33N 47°11' W 122°41'1 1.0
2015-Jul-29 14:09N 47°11' W 122°39'2 2.8
2015-Jul-29 13:33N 47°10' W 122°36'0 0.0
2015-Jul-29 12:33N 47°10' W 122°36'0 0.0
2015-Jul-29 03:16N 47°10' W 122°36'0 0.1
2015-Jul-29 02:27N 47°10' W 122°36'1 0.7
2015-Jul-29 01:33N 47°11' W 122°37'2 2.4
2015-Jul-29 00:32N 47°11' W 122°40'0 0.0
2015-Jul-28 23:33N 47°11' W 122°40'0 0.0
2015-Jul-28 22:28N 47°11' W 122°40'0 0.0
2015-Jul-28 21:29N 47°11' W 122°41'3 3.2
2015-Jul-28 20:33N 47°10' W 122°36'3 2.9
2015-Jul-28 19:30N 47°11' W 122°41'3 2.9
2015-Jul-28 18:28N 47°10' W 122°36'3 2.4
2015-Jul-28 17:18N 47°11' W 122°40'0 0.0
2015-Jul-28 16:32N 47°11' W 122°40'0 0.0
2015-Jul-28 15:15N 47°11' W 122°40'0 0.4
2015-Jul-28 14:33N 47°11' W 122°40'2 2.5
2015-Jul-28 13:33N 47°10' W 122°36'0 0.0
2015-Jul-28 12:43N 47°10' W 122°36'0 0.0
2015-Jul-28 12:33N 47°10' W 122°36'0 0.0
2015-Jul-28 03:18N 47°10' W 122°36'1 0.7
2015-Jul-28 02:33N 47°11' W 122°37'0 0.4
2015-Jul-28 01:31N 47°11' W 122°36'0 0.8
2015-Jul-28 01:23N 47°10' W 122°36'3 3.7
2015-Jul-28 00:33N 47°11' W 122°41'0 0.1
2015-Jul-27 23:27N 47°11' W 122°40'311.8
2015-Jul-27 23:12N 47°10' W 122°36'3 4.0
2015-Jul-27 22:28N 47°11' W 122°41'1 0.6
2015-Jul-27 21:22N 47°11' W 122°40'2 4.7
2015-Jul-27 20:52N 47°10' W 122°36'0 0.0
2015-Jul-27 20:33N 47°10' W 122°36'2 1.4
2015-Jul-27 19:11N 47°11' W 122°39'2 3.1
2015-Jul-27 18:34N 47°10' W 122°36'3 2.2
2015-Jul-27 17:18N 47°11' W 122°40'0 0.2
2015-Jul-27 16:34N 47°11' W 122°40'0 0.4
2015-Jul-27 15:34N 47°11' W 122°40'0 0.3
2015-Jul-27 14:33N 47°11' W 122°40'3 2.7
2015-Jul-27 13:34N 47°11' W 122°36'0 0.3
2015-Jul-27 12:33N 47°10' W 122°36'1 0.1
2015-Jul-27 04:34N 47°10' W 122°38'1 4.2
2015-Jul-27 04:20N 47°10' W 122°38'2 1.9
2015-Jul-27 03:34N 47°10' W 122°36'1 0.7
2015-Jul-27 02:33N 47°11' W 122°37'1 1.9
2015-Jul-27 02:15N 47°11' W 122°36'0 0.2
2015-Jul-27 01:33N 47°11' W 122°37'0 1.3
2015-Jul-27 01:20N 47°10' W 122°36'3 3.9
2015-Jul-27 00:33N 47°11' W 122°41'1 1.2
2015-Jul-26 23:30N 47°11' W 122°39'2 5.1
2015-Jul-26 23:10N 47°10' W 122°36'3 4.5
2015-Jul-26 22:29N 47°11' W 122°41'3 6.0
2015-Jul-26 21:59N 47°10' W 122°36'3 4.3
2015-Jul-26 21:24N 47°11' W 122°40'3 3.0
2015-Jul-26 20:33N 47°10' W 122°36'0 0.0
2015-Jul-26 20:29N 47°10' W 122°36'3 3.3
2015-Jul-26 19:34N 47°11' W 122°41'3 3.0
2015-Jul-26 18:33N 47°10' W 122°36'3 2.5
2015-Jul-26 17:22N 47°11' W 122°41'0 0.2
2015-Jul-26 16:31N 47°11' W 122°40'1 0.6
2015-Jul-26 15:33N 47°11' W 122°40'0 0.2
2015-Jul-26 14:32N 47°11' W 122°40'3 2.6
2015-Jul-26 13:33N 47°10' W 122°36'0 0.0
2015-Jul-26 06:05N 47°10' W 122°36'3 5.5
2015-Jul-26 05:33N 47°11' W 122°40'3 2.9
2015-Jul-26 04:33N 47°10' W 122°36'0 0.0
2015-Jul-26 03:33N 47°10' W 122°36'0 0.0
2015-Jul-26 03:27N 47°10' W 122°36'0 0.5
2015-Jul-26 02:33N 47°11' W 122°37'0 4.3
2015-Jul-26 02:27N 47°10' W 122°36'0 0.4
2015-Jul-26 01:33N 47°11' W 122°37'2 2.1
2015-Jul-26 00:33N 47°11' W 122°40'1 0.9
2015-Jul-25 23:33N 47°11' W 122°39'0 0.4
2015-Jul-25 22:33N 47°11' W 122°38'1 3.4
2015-Jul-25 22:12N 47°10' W 122°36'3 4.2
2015-Jul-25 21:29N 47°11' W 122°41'3 3.2
2015-Jul-25 20:33N 47°10' W 122°36'3 2.7
2015-Jul-25 19:25N 47°11' W 122°41'3 3.5
2015-Jul-25 18:33N 47°10' W 122°36'3 2.9
2015-Jul-25 17:31N 47°11' W 122°41'1 0.8
2015-Jul-25 16:33N 47°11' W 122°40'0 0.0
2015-Jul-25 15:33N 47°11' W 122°40'0 0.3
2015-Jul-25 14:32N 47°11' W 122°40'3 2.7
2015-Jul-25 13:33N 47°10' W 122°36'0 0.0
2015-Jul-25 12:33N 47°10' W 122°36'0 0.0
2015-Jul-25 07:05N 47°10' W 122°36'3 5.4
2015-Jul-25 06:32N 47°11' W 122°41'3 3.1
2015-Jul-25 05:33N 47°10' W 122°36'2 2.4
2015-Jul-25 04:33N 47°11' W 122°40'1 0.9
2015-Jul-25 03:33N 47°11' W 122°38'1 1.4
2015-Jul-25 02:33N 47°10' W 122°36'0 0.0
2015-Jul-25 01:40N 47°10' W 122°36'0 0.0
2015-Jul-25 01:33N 47°10' W 122°36'0 0.4
2015-Jul-25 00:33N 47°11' W 122°37'0 0.5
2015-Jul-24 23:33N 47°11' W 122°37'2 1.8
2015-Jul-24 22:33N 47°11' W 122°40'0 0.3
2015-Jul-24 21:29N 47°11' W 122°40'3 3.0
2015-Jul-24 20:30N 47°10' W 122°36'3 2.7
2015-Jul-24 19:24N 47°11' W 122°41'3 3.5
2015-Jul-24 18:33N 47°10' W 122°36'3 2.8
2015-Jul-24 17:30N 47°11' W 122°40'0 0.0
2015-Jul-24 16:29N 47°11' W 122°40'  
Track history (hours):
 
Tides and Currents Weather Stations Pressure Air Temp Water Temp Dewpoint Dewpoint Depression Visibility Wind Speed Wind Dir Waves Ship Positions

Christine Anderson

Owner: PIERCE, COUNTY OF, TACOMA, WA. More information available from US FCC via Universal Licensing System and Coast Guard Vessel Documentation Center.

Last reported at 2015-Aug-03 16:25 UTC. Time now 2015-Aug-03 17:15 UTC.
Position N 47°11' W 122°41'.

MMSI: 366659730.

Date/timePositionNaut miles runAvg speedWind from/ knotsBaromVisibWave heightAir tempDewpointWater temp
2015-Aug-03 16:25N 47°11' W 122°41'3 4.8
2015-Aug-03 15:48N 47°10' W 122°36'310.5
2015-Aug-03 15:33N 47°11' W 122°40'0 0.1
2015-Aug-03 14:33N 47°11' W 122°40'3 2.5
2015-Aug-03 13:33N 47°10' W 122°36'0 7.6
2015-Aug-03 13:31N 47°11' W 122°36'0 0.3
2015-Aug-03 12:32N 47°10' W 122°36'0 0.0
2015-Aug-03 12:25N 47°10' W 122°36'1 0.1
2015-Aug-03 04:33N 47°10' W 122°37'1 1.0
2015-Aug-03 03:33N 47°10' W 122°36'0 0.0
2015-Aug-03 02:32N 47°10' W 122°36'0 0.0
2015-Aug-03 01:27N 47°10' W 122°36'2 2.1
2015-Aug-03 00:31N 47°11' W 122°39'0 0.2
2015-Aug-02 23:31N 47°11' W 122°39'0 0.2
2015-Aug-02 22:29N 47°11' W 122°39'1 0.8
2015-Aug-02 21:29N 47°11' W 122°40'3 3.0
2015-Aug-02 20:33N 47°10' W 122°36'3 2.9
2015-Aug-02 19:31N 47°11' W 122°41'1 0.9
2015-Aug-02 18:16N 47°11' W 122°39'1 1.5
2015-Aug-02 17:32N 47°11' W 122°41'0 0.2
2015-Aug-02 16:15N 47°11' W 122°40'2 1.9
2015-Aug-02 15:04N 47°11' W 122°37'2 3.7
2015-Aug-02 14:32N 47°11' W 122°40'3 2.6
2015-Aug-02 13:33N 47°10' W 122°36'3 0.3
2015-Aug-02 05:33N 47°11' W 122°40'2 2.2
2015-Aug-02 04:30N 47°11' W 122°37'3 7.0
2015-Aug-02 04:07N 47°11' W 122°41'3 5.0
2015-Aug-02 03:33N 47°11' W 122°36'0 0.4
2015-Aug-02 02:33N 47°11' W 122°37'2 5.3
2015-Aug-02 02:07N 47°11' W 122°41'3 5.1
2015-Aug-02 01:32N 47°10' W 122°36'0 0.3
2015-Aug-02 00:32N 47°11' W 122°37'1 1.0
2015-Aug-01 23:33N 47°11' W 122°38'1 1.4
2015-Aug-01 22:33N 47°11' W 122°40'0 0.3
2015-Aug-01 21:33N 47°11' W 122°41'2 6.9
2015-Aug-01 21:17N 47°11' W 122°38'1 1.0
2015-Aug-01 20:03N 47°10' W 122°36'3 5.2
2015-Aug-01 19:33N 47°11' W 122°40'3 2.6
2015-Aug-01 18:33N 47°10' W 122°36'3 2.4
2015-Aug-01 17:25N 47°11' W 122°40'3 7.1
2015-Aug-01 17:01N 47°10' W 122°36'3 5.5
2015-Aug-01 16:33N 47°11' W 122°40'0 9.9
2015-Aug-01 16:31N 47°11' W 122°41'1 0.6
2015-Aug-01 15:33N 47°11' W 122°40'0 0.0
2015-Aug-01 14:33N 47°11' W 122°40'1 5.2
2015-Aug-01 14:26N 47°11' W 122°41'3 3.5
2015-Aug-01 13:33N 47°10' W 122°36'0 0.5
2015-Aug-01 13:31N 47°10' W 122°36'0 0.0
2015-Aug-01 07:05N 47°10' W 122°36'3 5.3
2015-Aug-01 06:34N 47°11' W 122°40'3 2.8
2015-Aug-01 05:33N 47°10' W 122°36'3 2.9
2015-Aug-01 04:32N 47°11' W 122°40'0 0.1
2015-Aug-01 03:45N 47°11' W 122°41'0 0.4
2015-Aug-01 03:33N 47°11' W 122°40'310.0
2015-Aug-01 03:15N 47°10' W 122°36'3 4.2
2015-Aug-01 02:33N 47°11' W 122°40'0 0.7
2015-Aug-01 02:25N 47°11' W 122°41'3 3.2
2015-Aug-01 01:33N 47°11' W 122°37'1 3.2
2015-Aug-01 01:15N 47°10' W 122°38'1 1.8
2015-Aug-01 00:33N 47°10' W 122°36'1 0.7
2015-Jul-31 23:34N 47°11' W 122°37'1 2.2
2015-Jul-31 23:14N 47°10' W 122°36'2 2.6
2015-Jul-31 22:33N 47°11' W 122°39'1 1.1
2015-Jul-31 21:31N 47°11' W 122°40'3 6.6
2015-Jul-31 21:04N 47°10' W 122°36'0 0.0
2015-Jul-31 20:16N 47°10' W 122°36'3 4.2
2015-Jul-31 19:33N 47°11' W 122°41'3 5.3
2015-Jul-31 18:59N 47°10' W 122°36'3 2.1
2015-Jul-31 17:33N 47°11' W 122°41'0 0.0
2015-Jul-31 16:32N 47°11' W 122°41'1 1.0
2015-Jul-31 15:12N 47°11' W 122°39'2 4.4
2015-Jul-31 14:49N 47°10' W 122°36'310.2
2015-Jul-31 14:33N 47°11' W 122°40'3 2.6
2015-Jul-31 13:33N 47°10' W 122°36'0 0.0
2015-Jul-31 12:30N 47°10' W 122°36'1 0.1
2015-Jul-31 04:31N 47°10' W 122°38'1 1.2
2015-Jul-31 03:33N 47°10' W 122°36'0 0.0
2015-Jul-31 02:26N 47°10' W 122°36'0 0.3
2015-Jul-31 01:28N 47°11' W 122°37'2 1.1
2015-Jul-30 23:33N 47°11' W 122°40'1 0.5
2015-Jul-30 22:34N 47°11' W 122°40'0 0.0
2015-Jul-30 21:29N 47°11' W 122°40'3 2.6
2015-Jul-30 20:20N 47°10' W 122°36'3 3.7
2015-Jul-30 19:30N 47°11' W 122°41'3 2.2
2015-Jul-30 18:08N 47°10' W 122°36'3 4.5
2015-Jul-30 17:27N 47°11' W 122°41'0 0.0
2015-Jul-30 16:33N 47°11' W 122°41'0 0.1
2015-Jul-30 15:19N 47°11' W 122°40'0 0.1
2015-Jul-30 14:33N 47°11' W 122°41'2 2.1
2015-Jul-30 13:33N 47°11' W 122°38'1 0.9
2015-Jul-30 12:26N 47°10' W 122°36'0 0.0
2015-Jul-30 03:20N 47°10' W 122°36'0 0.0
2015-Jul-30 03:17N 47°10' W 122°36'0 0.1
2015-Jul-30 02:33N 47°11' W 122°36'0 0.1
2015-Jul-30 01:19N 47°10' W 122°36'1 1.6
2015-Jul-30 00:31N 47°11' W 122°38'1 1.4
2015-Jul-29 23:33N 47°11' W 122°40'0 0.0
2015-Jul-29 22:33N 47°11' W 122°40'0 0.3
2015-Jul-29 21:29N 47°11' W 122°40'3 5.7
2015-Jul-29 20:58N 47°10' W 122°36'0 0.0
2015-Jul-29 20:33N 47°10' W 122°36'0 0.0
2015-Jul-29 20:19N 47°10' W 122°36'3 2.9
2015-Jul-29 19:19N 47°11' W 122°40'3 3.7
2015-Jul-29 18:31N 47°10' W 122°36'0 0.1
2015-Jul-29 17:33N 47°11' W 122°36'3 2.9
2015-Jul-29 16:33N 47°11' W 122°41'0 0.0
2015-Jul-29 15:33N 47°11' W 122°41'1 1.0
2015-Jul-29 14:09N 47°11' W 122°39'2 2.8
2015-Jul-29 13:33N 47°10' W 122°36'0 0.0
2015-Jul-29 12:33N 47°10' W 122°36'0 0.0
2015-Jul-29 03:16N 47°10' W 122°36'0 0.1
2015-Jul-29 02:27N 47°10' W 122°36'1 0.7
2015-Jul-29 01:33N 47°11' W 122°37'2 2.4
2015-Jul-29 00:32N 47°11' W 122°40'0 0.0
2015-Jul-28 23:33N 47°11' W 122°40'0 0.0
2015-Jul-28 22:28N 47°11' W 122°40'0 0.0
2015-Jul-28 21:29N 47°11' W 122°41'3 3.2
2015-Jul-28 20:33N 47°10' W 122°36'3 2.9
2015-Jul-28 19:30N 47°11' W 122°41'3 2.9
2015-Jul-28 18:28N 47°10' W 122°36'3 2.4
2015-Jul-28 17:18N 47°11' W 122°40'0 0.0
2015-Jul-28 16:32N 47°11' W 122°40'0 0.0
2015-Jul-28 15:15N 47°11' W 122°40'0 0.4
2015-Jul-28 14:33N 47°11' W 122°40'2 2.5
2015-Jul-28 13:33N 47°10' W 122°36'0 0.0
2015-Jul-28 12:43N 47°10' W 122°36'0 0.0
2015-Jul-28 12:33N 47°10' W 122°36'0 0.0
2015-Jul-28 03:18N 47°10' W 122°36'1 0.7
2015-Jul-28 02:33N 47°11' W 122°37'0 0.4
2015-Jul-28 01:31N 47°11' W 122°36'0 0.8
2015-Jul-28 01:23N 47°10' W 122°36'3 3.7
2015-Jul-28 00:33N 47°11' W 122°41'0 0.1
2015-Jul-27 23:27N 47°11' W 122°40'311.8
2015-Jul-27 23:12N 47°10' W 122°36'3 4.0
2015-Jul-27 22:28N 47°11' W 122°41'1 0.6
2015-Jul-27 21:22N 47°11' W 122°40'2 4.7
2015-Jul-27 20:52N 47°10' W 122°36'0 0.0
2015-Jul-27 20:33N 47°10' W 122°36'2 1.4
2015-Jul-27 19:11N 47°11' W 122°39'2 3.1
2015-Jul-27 18:34N 47°10' W 122°36'3 2.2
2015-Jul-27 17:18N 47°11' W 122°40'0 0.2
2015-Jul-27 16:34N 47°11' W 122°40'0 0.4
2015-Jul-27 15:34N 47°11' W 122°40'0 0.3
2015-Jul-27 14:33N 47°11' W 122°40'3 2.7
2015-Jul-27 13:34N 47°11' W 122°36'0 0.3
2015-Jul-27 12:33N 47°10' W 122°36'1 0.1
2015-Jul-27 04:34N 47°10' W 122°38'1 4.2
2015-Jul-27 04:20N 47°10' W 122°38'2 1.9
2015-Jul-27 03:34N 47°10' W 122°36'1 0.7
2015-Jul-27 02:33N 47°11' W 122°37'1 1.9
2015-Jul-27 02:15N 47°11' W 122°36'0 0.2
2015-Jul-27 01:33N 47°11' W 122°37'0 1.3
2015-Jul-27 01:20N 47°10' W 122°36'3 3.9
2015-Jul-27 00:33N 47°11' W 122°41'1 1.2
2015-Jul-26 23:30N 47°11' W 122°39'2 5.1
2015-Jul-26 23:10N 47°10' W 122°36'3 4.5
2015-Jul-26 22:29N 47°11' W 122°41'3 6.0
2015-Jul-26 21:59N 47°10' W 122°36'3 4.3
2015-Jul-26 21:24N 47°11' W 122°40'3 3.0
2015-Jul-26 20:33N 47°10' W 122°36'0 0.0
2015-Jul-26 20:29N 47°10' W 122°36'3 3.3
2015-Jul-26 19:34N 47°11' W 122°41'3 3.0
2015-Jul-26 18:33N 47°10' W 122°36'3 2.5
2015-Jul-26 17:22N 47°11' W 122°41'0 0.2
2015-Jul-26 16:31N 47°11' W 122°40'1 0.6
2015-Jul-26 15:33N 47°11' W 122°40'0 0.2
2015-Jul-26 14:32N 47°11' W 122°40'3 2.6
2015-Jul-26 13:33N 47°10' W 122°36'0 0.0
2015-Jul-26 06:05N 47°10' W 122°36'3 5.5
2015-Jul-26 05:33N 47°11' W 122°40'3 2.9
2015-Jul-26 04:33N 47°10' W 122°36'0 0.0
2015-Jul-26 03:33N 47°10' W 122°36'0 0.0
2015-Jul-26 03:27N 47°10' W 122°36'0 0.5
2015-Jul-26 02:33N 47°11' W 122°37'0 4.3
2015-Jul-26 02:27N 47°10' W 122°36'0 0.4
2015-Jul-26 01:33N 47°11' W 122°37'2 2.1
2015-Jul-26 00:33N 47°11' W 122°40'1 0.9
2015-Jul-25 23:33N 47°11' W 122°39'0 0.4
2015-Jul-25 22:33N 47°11' W 122°38'1 3.4
2015-Jul-25 22:12N 47°10' W 122°36'3 4.2
2015-Jul-25 21:29N 47°11' W 122°41'3 3.2
2015-Jul-25 20:33N 47°10' W 122°36'3 2.7
2015-Jul-25 19:25N 47°11' W 122°41'3 3.5
2015-Jul-25 18:33N 47°10' W 122°36'3 2.9
2015-Jul-25 17:31N 47°11' W 122°41'1 0.8
2015-Jul-25 16:33N 47°11' W 122°40'0 0.0
2015-Jul-25 15:33N 47°11' W 122°40'0 0.3
2015-Jul-25 14:32N 47°11' W 122°40'3 2.7
2015-Jul-25 13:33N 47°10' W 122°36'0 0.0
2015-Jul-25 12:33N 47°10' W 122°36'0 0.0
2015-Jul-25 07:05N 47°10' W 122°36'3 5.4
2015-Jul-25 06:32N 47°11' W 122°41'3 3.1
2015-Jul-25 05:33N 47°10' W 122°36'2 2.4
2015-Jul-25 04:33N 47°11' W 122°40'1 0.9
2015-Jul-25 03:33N 47°11' W 122°38'1 1.4
2015-Jul-25 02:33N 47°10' W 122°36'0 0.0
2015-Jul-25 01:40N 47°10' W 122°36'0 0.0
2015-Jul-25 01:33N 47°10' W 122°36'0 0.4
2015-Jul-25 00:33N 47°11' W 122°37'0 0.5
2015-Jul-24 23:33N 47°11' W 122°37'2 1.8
2015-Jul-24 22:33N 47°11' W 122°40'0 0.3
2015-Jul-24 21:29N 47°11' W 122°40'3 3.0
2015-Jul-24 20:30N 47°10' W 122°36'3 2.7
2015-Jul-24 19:24N 47°11' W 122°41'3 3.5
2015-Jul-24 18:33N 47°10' W 122°36'3 2.8
2015-Jul-24 17:30N 47°11' W 122°40'0 0.0
2015-Jul-24 16:29N 47°11' W 122°40'  

Dump ship's entire track history